sensor_id;sensor_type;location;lat;lon;timestamp;temperature;humidity
25628;DHT22;40915;50.826;4.356;2023-03-01T00:00:15;2.00;99.90
25628;DHT22;40915;50.826;4.356;2023-03-01T00:02:41;1.90;99.90
25628;DHT22;40915;50.826;4.356;2023-03-01T00:05:07;1.90;99.90
25628;DHT22;40915;50.826;4.356;2023-03-01T00:07:33;1.80;99.90
25628;DHT22;40915;50.826;4.356;2023-03-01T00:09:58;1.80;99.90
25628;DHT22;40915;50.826;4.356;2023-03-01T00:12:24;1.80;99.90
25628;DHT22;40915;50.826;4.356;2023-03-01T00:14:50;1.80;99.90
25628;DHT22;40915;50.826;4.356;2023-03-01T00:17:16;1.80;99.90
25628;DHT22;40915;50.826;4.356;2023-03-01T00:19:42;1.80;99.90
25628;DHT22;40915;50.826;4.356;2023-03-01T00:22:07;1.80;99.90
25628;DHT22;40915;50.826;4.356;2023-03-01T00:24:33;1.80;99.90
25628;DHT22;40915;50.826;4.356;2023-03-01T00:26:59;1.80;99.90
25628;DHT22;40915;50.826;4.356;2023-03-01T00:29:25;1.70;99.90
25628;DHT22;40915;50.826;4.356;2023-03-01T00:31:50;1.70;99.90
25628;DHT22;40915;50.826;4.356;2023-03-01T00:34:16;1.70;99.90
25628;DHT22;40915;50.826;4.356;2023-03-01T00:36:42;1.70;99.90
25628;DHT22;40915;50.826;4.356;2023-03-01T00:39:11;1.70;99.90
25628;DHT22;40915;50.826;4.356;2023-03-01T00:41:37;1.70;99.90
25628;DHT22;40915;50.826;4.356;2023-03-01T00:44:03;1.70;99.90
25628;DHT22;40915;50.826;4.356;2023-03-01T00:46:29;1.70;99.90
25628;DHT22;40915;50.826;4.356;2023-03-01T00:48:56;1.70;99.90
25628;DHT22;40915;50.826;4.356;2023-03-01T00:51:27;1.60;99.90
25628;DHT22;40915;50.826;4.356;2023-03-01T00:53:55;1.60;99.90
25628;DHT22;40915;50.826;4.356;2023-03-01T00:56:22;1.60;99.90
25628;DHT22;40915;50.826;4.356;2023-03-01T00:58:49;1.60;99.90
25628;DHT22;40915;50.826;4.356;2023-03-01T01:01:18;1.60;99.90
25628;DHT22;40915;50.826;4.356;2023-03-01T01:03:48;1.60;99.90
25628;DHT22;40915;50.826;4.356;2023-03-01T01:06:23;1.50;99.90
25628;DHT22;40915;50.826;4.356;2023-03-01T01:08:50;1.50;99.90
25628;DHT22;40915;50.826;4.356;2023-03-01T01:11:16;1.50;99.90
25628;DHT22;40915;50.826;4.356;2023-03-01T01:13:44;1.50;99.90
25628;DHT22;40915;50.826;4.356;2023-03-01T01:16:11;1.50;99.90
25628;DHT22;40915;50.826;4.356;2023-03-01T01:18:37;1.50;99.90
25628;DHT22;40915;50.826;4.356;2023-03-01T01:21:14;1.40;99.90
25628;DHT22;40915;50.826;4.356;2023-03-01T01:23:42;1.40;99.90
25628;DHT22;40915;50.826;4.356;2023-03-01T01:26:11;1.40;99.90
25628;DHT22;40915;50.826;4.356;2023-03-01T01:28:37;1.40;99.90
25628;DHT22;40915;50.826;4.356;2023-03-01T01:31:03;1.40;99.90
25628;DHT22;40915;50.826;4.356;2023-03-01T01:33:30;1.40;99.90
25628;DHT22;40915;50.826;4.356;2023-03-01T01:35:56;1.30;99.90
25628;DHT22;40915;50.826;4.356;2023-03-01T01:38:22;1.30;99.90
25628;DHT22;40915;50.826;4.356;2023-03-01T01:41:09;1.30;99.90
25628;DHT22;40915;50.826;4.356;2023-03-01T01:43:42;1.30;99.90
25628;DHT22;40915;50.826;4.356;2023-03-01T01:46:28;1.30;99.90
25628;DHT22;40915;50.826;4.356;2023-03-01T01:49:02;1.30;99.90
25628;DHT22;40915;50.826;4.356;2023-03-01T01:51:35;1.30;99.90
25628;DHT22;40915;50.826;4.356;2023-03-01T01:54:12;1.30;99.90
25628;DHT22;40915;50.826;4.356;2023-03-01T01:56:42;1.30;99.90
25628;DHT22;40915;50.826;4.356;2023-03-01T01:59:09;1.30;99.90
25628;DHT22;40915;50.826;4.356;2023-03-01T02:01:36;1.30;99.90
25628;DHT22;40915;50.826;4.356;2023-03-01T02:04:02;1.30;99.90
25628;DHT22;40915;50.826;4.356;2023-03-01T02:06:34;1.20;99.90
25628;DHT22;40915;50.826;4.356;2023-03-01T02:09:13;1.30;99.90
25628;DHT22;40915;50.826;4.356;2023-03-01T02:11:40;1.20;99.90
25628;DHT22;40915;50.826;4.356;2023-03-01T02:14:06;1.20;99.90
25628;DHT22;40915;50.826;4.356;2023-03-01T02:16:32;1.20;99.90
25628;DHT22;40915;50.826;4.356;2023-03-01T02:18:58;1.20;99.90
25628;DHT22;40915;50.826;4.356;2023-03-01T02:21:44;1.20;99.90
25628;DHT22;40915;50.826;4.356;2023-03-01T02:27:10;1.10;99.90
25628;DHT22;40915;50.826;4.356;2023-03-01T02:29:36;1.20;99.90
25628;DHT22;40915;50.826;4.356;2023-03-01T02:32:02;1.10;99.90
25628;DHT22;40915;50.826;4.356;2023-03-01T02:34:31;1.10;99.90
25628;DHT22;40915;50.826;4.356;2023-03-01T02:37:01;1.10;99.90
25628;DHT22;40915;50.826;4.356;2023-03-01T02:39:34;1.00;99.90
25628;DHT22;40915;50.826;4.356;2023-03-01T02:42:02;1.00;99.90
25628;DHT22;40915;50.826;4.356;2023-03-01T02:44:29;1.00;99.90
25628;DHT22;40915;50.826;4.356;2023-03-01T02:46:56;1.00;99.90
25628;DHT22;40915;50.826;4.356;2023-03-01T02:49:27;1.00;99.90
25628;DHT22;40915;50.826;4.356;2023-03-01T02:57:06;0.90;99.90
25628;DHT22;40915;50.826;4.356;2023-03-01T02:59:34;0.90;99.90
25628;DHT22;40915;50.826;4.356;2023-03-01T03:02:17;0.90;99.90
25628;DHT22;40915;50.826;4.356;2023-03-01T03:04:45;0.90;99.90
25628;DHT22;40915;50.826;4.356;2023-03-01T03:07:11;0.80;99.90
25628;DHT22;40915;50.826;4.356;2023-03-01T03:09:36;0.80;99.90
25628;DHT22;40915;50.826;4.356;2023-03-01T03:12:02;0.80;99.90
25628;DHT22;40915;50.826;4.356;2023-03-01T03:14:27;0.80;99.90
25628;DHT22;40915;50.826;4.356;2023-03-01T03:16:53;0.80;99.90
25628;DHT22;40915;50.826;4.356;2023-03-01T03:19:19;0.80;99.90
25628;DHT22;40915;50.826;4.356;2023-03-01T03:21:45;0.70;99.90
25628;DHT22;40915;50.826;4.356;2023-03-01T03:24:11;0.70;99.90
25628;DHT22;40915;50.826;4.356;2023-03-01T03:26:36;0.80;99.90
25628;DHT22;40915;50.826;4.356;2023-03-01T03:29:02;0.70;99.90
25628;DHT22;40915;50.826;4.356;2023-03-01T03:31:27;0.70;99.90
25628;DHT22;40915;50.826;4.356;2023-03-01T03:33:53;0.70;99.90
25628;DHT22;40915;50.826;4.356;2023-03-01T03:36:22;0.60;99.90
25628;DHT22;40915;50.826;4.356;2023-03-01T03:38:48;0.60;99.90
25628;DHT22;40915;50.826;4.356;2023-03-01T03:41:15;0.60;99.90
25628;DHT22;40915;50.826;4.356;2023-03-01T03:43:43;0.60;99.90
25628;DHT22;40915;50.826;4.356;2023-03-01T03:46:10;0.60;99.90
25628;DHT22;40915;50.826;4.356;2023-03-01T03:48:41;0.60;99.90
25628;DHT22;40915;50.826;4.356;2023-03-01T03:51:09;0.60;99.90
25628;DHT22;40915;50.826;4.356;2023-03-01T03:53:35;0.60;99.90
25628;DHT22;40915;50.826;4.356;2023-03-01T03:56:00;0.60;99.90
25628;DHT22;40915;50.826;4.356;2023-03-01T03:58:26;0.60;99.90
25628;DHT22;40915;50.826;4.356;2023-03-01T04:00:54;0.60;99.90
25628;DHT22;40915;50.826;4.356;2023-03-01T04:03:25;0.60;99.90
25628;DHT22;40915;50.826;4.356;2023-03-01T04:05:51;0.60;99.90
25628;DHT22;40915;50.826;4.356;2023-03-01T04:08:21;0.50;99.90
25628;DHT22;40915;50.826;4.356;2023-03-01T04:10:50;0.50;99.90
25628;DHT22;40915;50.826;4.356;2023-03-01T04:13:18;0.60;99.90
25628;DHT22;40915;50.826;4.356;2023-03-01T04:15:46;0.50;99.90
25628;DHT22;40915;50.826;4.356;2023-03-01T04:18:14;0.50;99.90
25628;DHT22;40915;50.826;4.356;2023-03-01T04:20:40;0.40;99.90
25628;DHT22;40915;50.826;4.356;2023-03-01T04:23:12;0.40;99.90
25628;DHT22;40915;50.826;4.356;2023-03-01T04:25:55;0.40;99.90
25628;DHT22;40915;50.826;4.356;2023-03-01T04:28:25;0.40;99.90
25628;DHT22;40915;50.826;4.356;2023-03-01T04:33:18;0.30;99.90
25628;DHT22;40915;50.826;4.356;2023-03-01T04:35:44;0.30;99.90
25628;DHT22;40915;50.826;4.356;2023-03-01T04:38:09;0.30;99.90
25628;DHT22;40915;50.826;4.356;2023-03-01T04:40:36;0.30;99.90
25628;DHT22;40915;50.826;4.356;2023-03-01T04:43:02;0.30;99.90
25628;DHT22;40915;50.826;4.356;2023-03-01T04:45:28;0.30;99.90
25628;DHT22;40915;50.826;4.356;2023-03-01T04:47:54;0.30;99.90
25628;DHT22;40915;50.826;4.356;2023-03-01T04:50:20;0.30;99.90
25628;DHT22;40915;50.826;4.356;2023-03-01T04:52:47;0.30;99.90
25628;DHT22;40915;50.826;4.356;2023-03-01T04:55:13;0.30;99.90
25628;DHT22;40915;50.826;4.356;2023-03-01T04:57:39;0.20;99.90
25628;DHT22;40915;50.826;4.356;2023-03-01T05:00:07;0.20;99.90
25628;DHT22;40915;50.826;4.356;2023-03-01T05:02:53;0.30;99.90
25628;DHT22;40915;50.826;4.356;2023-03-01T05:05:32;0.20;99.90
25628;DHT22;40915;50.826;4.356;2023-03-01T05:08:00;0.20;99.90
25628;DHT22;40915;50.826;4.356;2023-03-01T05:10:33;0.20;99.90
25628;DHT22;40915;50.826;4.356;2023-03-01T05:13:01;0.20;99.90
25628;DHT22;40915;50.826;4.356;2023-03-01T05:15:28;0.20;99.90
25628;DHT22;40915;50.826;4.356;2023-03-01T05:17:55;0.20;99.90
25628;DHT22;40915;50.826;4.356;2023-03-01T05:20:21;0.20;99.90
25628;DHT22;40915;50.826;4.356;2023-03-01T05:22:51;0.20;99.90
25628;DHT22;40915;50.826;4.356;2023-03-01T05:25:17;0.20;99.90
25628;DHT22;40915;50.826;4.356;2023-03-01T05:27:42;0.10;99.90
25628;DHT22;40915;50.826;4.356;2023-03-01T05:30:08;0.10;99.90
25628;DHT22;40915;50.826;4.356;2023-03-01T05:32:45;0.10;99.90
25628;DHT22;40915;50.826;4.356;2023-03-01T05:35:13;0.10;99.90
25628;DHT22;40915;50.826;4.356;2023-03-01T05:37:40;0.10;99.90
25628;DHT22;40915;50.826;4.356;2023-03-01T05:40:08;0.10;99.90
25628;DHT22;40915;50.826;4.356;2023-03-01T05:43:03;0.10;99.90
25628;DHT22;40915;50.826;4.356;2023-03-01T05:45:31;0.10;99.90
25628;DHT22;40915;50.826;4.356;2023-03-01T05:47:58;0.10;99.90
25628;DHT22;40915;50.826;4.356;2023-03-01T05:50:28;0.10;99.90
25628;DHT22;40915;50.826;4.356;2023-03-01T05:53:02;0.00;99.90
25628;DHT22;40915;50.826;4.356;2023-03-01T05:55:30;0.00;99.90
25628;DHT22;40915;50.826;4.356;2023-03-01T05:57:59;0.00;99.90
25628;DHT22;40915;50.826;4.356;2023-03-01T06:00:27;0.00;99.90
25628;DHT22;40915;50.826;4.356;2023-03-01T06:02:54;0.00;99.90
25628;DHT22;40915;50.826;4.356;2023-03-01T06:05:20;-0.10;99.90
25628;DHT22;40915;50.826;4.356;2023-03-01T06:07:45;-0.10;99.90
25628;DHT22;40915;50.826;4.356;2023-03-01T06:10:12;-0.10;99.90
25628;DHT22;40915;50.826;4.356;2023-03-01T06:12:40;-0.10;99.90
25628;DHT22;40915;50.826;4.356;2023-03-01T06:15:07;-0.10;99.90
25628;DHT22;40915;50.826;4.356;2023-03-01T06:17:36;0.00;99.90
25628;DHT22;40915;50.826;4.356;2023-03-01T06:20:11;-0.10;99.90
25628;DHT22;40915;50.826;4.356;2023-03-01T06:22:37;0.00;99.90
25628;DHT22;40915;50.826;4.356;2023-03-01T06:25:04;-0.10;99.90
25628;DHT22;40915;50.826;4.356;2023-03-01T06:27:30;-0.10;99.90
25628;DHT22;40915;50.826;4.356;2023-03-01T06:29:55;-0.10;99.90
25628;DHT22;40915;50.826;4.356;2023-03-01T06:32:21;-0.10;99.90
25628;DHT22;40915;50.826;4.356;2023-03-01T06:34:46;-0.10;99.90
25628;DHT22;40915;50.826;4.356;2023-03-01T06:37:12;-0.10;99.90
25628;DHT22;40915;50.826;4.356;2023-03-01T06:39:37;-0.10;99.90
25628;DHT22;40915;50.826;4.356;2023-03-01T06:42:03;-0.10;99.90
25628;DHT22;40915;50.826;4.356;2023-03-01T06:44:29;-0.10;99.90
25628;DHT22;40915;50.826;4.356;2023-03-01T06:46:54;-0.10;99.90
25628;DHT22;40915;50.826;4.356;2023-03-01T06:49:20;-0.10;99.90
25628;DHT22;40915;50.826;4.356;2023-03-01T06:51:46;-0.10;99.90
25628;DHT22;40915;50.826;4.356;2023-03-01T06:54:12;0.00;99.90
25628;DHT22;40915;50.826;4.356;2023-03-01T06:56:38;0.00;99.90
25628;DHT22;40915;50.826;4.356;2023-03-01T06:59:04;0.00;99.90
25628;DHT22;40915;50.826;4.356;2023-03-01T07:01:30;0.00;99.90
25628;DHT22;40915;50.826;4.356;2023-03-01T07:03:56;0.00;99.90
25628;DHT22;40915;50.826;4.356;2023-03-01T07:06:22;0.00;99.90
25628;DHT22;40915;50.826;4.356;2023-03-01T07:08:48;0.10;99.90
25628;DHT22;40915;50.826;4.356;2023-03-01T07:11:14;0.10;99.90
25628;DHT22;40915;50.826;4.356;2023-03-01T07:13:40;0.50;99.90
25628;DHT22;40915;50.826;4.356;2023-03-01T07:16:06;0.90;99.90
25628;DHT22;40915;50.826;4.356;2023-03-01T07:18:32;1.30;99.90
25628;DHT22;40915;50.826;4.356;2023-03-01T07:20:57;1.50;99.90
25628;DHT22;40915;50.826;4.356;2023-03-01T07:23:23;1.70;99.90
25628;DHT22;40915;50.826;4.356;2023-03-01T07:25:53;1.80;99.90
25628;DHT22;40915;50.826;4.356;2023-03-01T07:28:19;2.00;99.90
25628;DHT22;40915;50.826;4.356;2023-03-01T07:30:44;2.00;99.90
25628;DHT22;40915;50.826;4.356;2023-03-01T07:33:10;2.10;99.90
25628;DHT22;40915;50.826;4.356;2023-03-01T07:35:35;2.30;99.90
25628;DHT22;40915;50.826;4.356;2023-03-01T07:38:01;2.50;99.90
25628;DHT22;40915;50.826;4.356;2023-03-01T07:40:26;2.50;99.90
25628;DHT22;40915;50.826;4.356;2023-03-01T07:42:56;2.20;99.90
25628;DHT22;40915;50.826;4.356;2023-03-01T07:45:22;1.90;99.90
25628;DHT22;40915;50.826;4.356;2023-03-01T07:47:47;1.60;99.90
25628;DHT22;40915;50.826;4.356;2023-03-01T07:50:13;1.40;99.90
25628;DHT22;40915;50.826;4.356;2023-03-01T07:52:39;1.30;99.90
25628;DHT22;40915;50.826;4.356;2023-03-01T07:55:04;1.10;99.90
25628;DHT22;40915;50.826;4.356;2023-03-01T07:57:30;1.10;99.90
25628;DHT22;40915;50.826;4.356;2023-03-01T07:59:56;1.10;99.90
25628;DHT22;40915;50.826;4.356;2023-03-01T08:02:22;1.00;99.90
25628;DHT22;40915;50.826;4.356;2023-03-01T08:04:48;1.00;99.90
25628;DHT22;40915;50.826;4.356;2023-03-01T08:07:14;1.00;99.90
25628;DHT22;40915;50.826;4.356;2023-03-01T08:09:39;1.00;99.90
25628;DHT22;40915;50.826;4.356;2023-03-01T08:12:05;1.10;99.90
25628;DHT22;40915;50.826;4.356;2023-03-01T08:14:32;1.10;99.90
25628;DHT22;40915;50.826;4.356;2023-03-01T08:16:57;1.00;99.90
25628;DHT22;40915;50.826;4.356;2023-03-01T08:19:23;1.10;99.90
25628;DHT22;40915;50.826;4.356;2023-03-01T08:21:49;1.10;99.90
25628;DHT22;40915;50.826;4.356;2023-03-01T08:24:15;1.10;99.90
25628;DHT22;40915;50.826;4.356;2023-03-01T08:26:41;1.10;99.90
25628;DHT22;40915;50.826;4.356;2023-03-01T08:29:07;1.20;99.90
25628;DHT22;40915;50.826;4.356;2023-03-01T08:31:36;1.20;99.90
25628;DHT22;40915;50.826;4.356;2023-03-01T08:34:05;1.20;99.90
25628;DHT22;40915;50.826;4.356;2023-03-01T08:36:39;1.30;99.90
25628;DHT22;40915;50.826;4.356;2023-03-01T08:39:06;1.30;99.90
25628;DHT22;40915;50.826;4.356;2023-03-01T08:41:33;1.30;99.90
25628;DHT22;40915;50.826;4.356;2023-03-01T08:43:59;1.40;99.90
25628;DHT22;40915;50.826;4.356;2023-03-01T08:46:26;1.40;99.90
25628;DHT22;40915;50.826;4.356;2023-03-01T08:48:52;1.50;99.90
25628;DHT22;40915;50.826;4.356;2023-03-01T08:51:19;1.50;99.90
25628;DHT22;40915;50.826;4.356;2023-03-01T08:53:46;1.60;99.90
25628;DHT22;40915;50.826;4.356;2023-03-01T08:56:12;1.70;99.90
25628;DHT22;40915;50.826;4.356;2023-03-01T08:58:38;1.80;99.90
25628;DHT22;40915;50.826;4.356;2023-03-01T09:01:09;1.90;99.90
25628;DHT22;40915;50.826;4.356;2023-03-01T09:03:34;2.00;99.90
25628;DHT22;40915;50.826;4.356;2023-03-01T09:06:02;2.00;99.90
25628;DHT22;40915;50.826;4.356;2023-03-01T09:08:28;2.00;99.90
25628;DHT22;40915;50.826;4.356;2023-03-01T09:10:54;2.10;99.90
25628;DHT22;40915;50.826;4.356;2023-03-01T09:13:20;2.10;99.90
25628;DHT22;40915;50.826;4.356;2023-03-01T09:15:50;2.10;99.90
25628;DHT22;40915;50.826;4.356;2023-03-01T09:18:16;2.20;99.90
25628;DHT22;40915;50.826;4.356;2023-03-01T09:20:42;2.20;99.90
25628;DHT22;40915;50.826;4.356;2023-03-01T09:23:07;2.20;99.90
25628;DHT22;40915;50.826;4.356;2023-03-01T09:25:34;2.30;99.90
25628;DHT22;40915;50.826;4.356;2023-03-01T09:28:00;2.40;99.90
25628;DHT22;40915;50.826;4.356;2023-03-01T09:30:26;2.40;99.90
25628;DHT22;40915;50.826;4.356;2023-03-01T09:32:52;2.40;99.90
25628;DHT22;40915;50.826;4.356;2023-03-01T09:35:18;2.50;99.90
25628;DHT22;40915;50.826;4.356;2023-03-01T09:37:45;2.60;99.90
25628;DHT22;40915;50.826;4.356;2023-03-01T09:40:15;2.60;99.90
25628;DHT22;40915;50.826;4.356;2023-03-01T09:43:07;2.60;99.90
25628;DHT22;40915;50.826;4.356;2023-03-01T09:45:40;2.70;99.90
25628;DHT22;40915;50.826;4.356;2023-03-01T09:48:15;2.70;99.90
25628;DHT22;40915;50.826;4.356;2023-03-01T09:50:43;2.80;99.90
25628;DHT22;40915;50.826;4.356;2023-03-01T09:53:21;2.90;99.90
25628;DHT22;40915;50.826;4.356;2023-03-01T09:55:59;3.00;99.90
25628;DHT22;40915;50.826;4.356;2023-03-01T09:58:54;3.00;99.90
25628;DHT22;40915;50.826;4.356;2023-03-01T10:06:56;3.20;99.90
25628;DHT22;40915;50.826;4.356;2023-03-01T10:09:23;3.30;99.90
25628;DHT22;40915;50.826;4.356;2023-03-01T10:11:52;3.40;99.90
25628;DHT22;40915;50.826;4.356;2023-03-01T10:14:43;3.50;99.90
25628;DHT22;40915;50.826;4.356;2023-03-01T10:17:30;3.60;99.90
25628;DHT22;40915;50.826;4.356;2023-03-01T10:20:21;3.70;99.90
25628;DHT22;40915;50.826;4.356;2023-03-01T10:22:47;3.70;99.90
25628;DHT22;40915;50.826;4.356;2023-03-01T10:25:20;3.70;99.90
25628;DHT22;40915;50.826;4.356;2023-03-01T10:27:53;3.70;99.90
25628;DHT22;40915;50.826;4.356;2023-03-01T10:30:32;3.80;99.90
25628;DHT22;40915;50.826;4.356;2023-03-01T10:33:00;3.90;99.90
25628;DHT22;40915;50.826;4.356;2023-03-01T10:35:29;4.00;99.90
25628;DHT22;40915;50.826;4.356;2023-03-01T10:40:24;4.10;99.90
25628;DHT22;40915;50.826;4.356;2023-03-01T10:42:50;4.10;99.90
25628;DHT22;40915;50.826;4.356;2023-03-01T10:47:41;4.20;99.90
25628;DHT22;40915;50.826;4.356;2023-03-01T10:50:22;4.30;99.90
25628;DHT22;40915;50.826;4.356;2023-03-01T10:52:59;4.30;99.90
25628;DHT22;40915;50.826;4.356;2023-03-01T10:55:37;4.40;99.90
25628;DHT22;40915;50.826;4.356;2023-03-01T10:58:18;4.50;99.90
25628;DHT22;40915;50.826;4.356;2023-03-01T11:00:56;4.60;99.90
25628;DHT22;40915;50.826;4.356;2023-03-01T11:03:26;4.60;99.90
25628;DHT22;40915;50.826;4.356;2023-03-01T11:05:59;4.60;99.90
25628;DHT22;40915;50.826;4.356;2023-03-01T11:11:17;4.80;99.90
25628;DHT22;40915;50.826;4.356;2023-03-01T11:13:56;4.80;99.90
25628;DHT22;40915;50.826;4.356;2023-03-01T11:16:25;4.90;99.90
25628;DHT22;40915;50.826;4.356;2023-03-01T11:19:00;4.80;99.90
25628;DHT22;40915;50.826;4.356;2023-03-01T11:21:28;4.80;99.90
25628;DHT22;40915;50.826;4.356;2023-03-01T11:23:58;4.80;99.90
25628;DHT22;40915;50.826;4.356;2023-03-01T11:26:25;4.80;99.90
25628;DHT22;40915;50.826;4.356;2023-03-01T11:28:54;4.80;99.90
25628;DHT22;40915;50.826;4.356;2023-03-01T11:31:22;5.00;99.90
25628;DHT22;40915;50.826;4.356;2023-03-01T11:36:31;5.00;99.90
25628;DHT22;40915;50.826;4.356;2023-03-01T11:41:49;5.10;99.90
25628;DHT22;40915;50.826;4.356;2023-03-01T11:44:25;5.10;99.90
25628;DHT22;40915;50.826;4.356;2023-03-01T11:55:14;5.30;99.90
25628;DHT22;40915;50.826;4.356;2023-03-01T12:08:41;5.50;99.90
25628;DHT22;40915;50.826;4.356;2023-03-01T12:19:43;5.90;99.90
25628;DHT22;40915;50.826;4.356;2023-03-01T12:22:29;5.90;99.90
25628;DHT22;40915;50.826;4.356;2023-03-01T12:25:28;6.00;99.90
25628;DHT22;40915;50.826;4.356;2023-03-01T12:31:16;6.10;99.90
25628;DHT22;40915;50.826;4.356;2023-03-01T12:33:58;6.30;99.90
25628;DHT22;40915;50.826;4.356;2023-03-01T12:45:16;6.30;99.90
25628;DHT22;40915;50.826;4.356;2023-03-01T12:48:01;6.30;99.90
25628;DHT22;40915;50.826;4.356;2023-03-01T12:50:52;6.20;99.90
25628;DHT22;40915;50.826;4.356;2023-03-01T12:53:27;6.20;99.90
25628;DHT22;40915;50.826;4.356;2023-03-01T12:55:56;6.20;99.90
25628;DHT22;40915;50.826;4.356;2023-03-01T12:58:39;6.30;99.90
25628;DHT22;40915;50.826;4.356;2023-03-01T13:12:02;6.80;99.90
25628;DHT22;40915;50.826;4.356;2023-03-01T13:16:56;6.80;99.90
25628;DHT22;40915;50.826;4.356;2023-03-01T13:19:24;6.80;99.90
25628;DHT22;40915;50.826;4.356;2023-03-01T13:21:53;6.70;99.90
25628;DHT22;40915;50.826;4.356;2023-03-01T13:24:40;6.70;99.90
25628;DHT22;40915;50.826;4.356;2023-03-01T13:27:24;6.80;99.90
25628;DHT22;40915;50.826;4.356;2023-03-01T13:29:56;6.80;99.90
25628;DHT22;40915;50.826;4.356;2023-03-01T13:34:59;6.80;99.90
25628;DHT22;40915;50.826;4.356;2023-03-01T13:37:33;6.90;99.90
25628;DHT22;40915;50.826;4.356;2023-03-01T13:40:03;6.90;99.90
25628;DHT22;40915;50.826;4.356;2023-03-01T13:42:41;6.90;99.90
25628;DHT22;40915;50.826;4.356;2023-03-01T13:48:02;6.90;99.90
25628;DHT22;40915;50.826;4.356;2023-03-01T13:50:36;6.80;99.90
25628;DHT22;40915;50.826;4.356;2023-03-01T13:53:06;6.90;99.90
25628;DHT22;40915;50.826;4.356;2023-03-01T13:56:28;6.90;99.90
25628;DHT22;40915;50.826;4.356;2023-03-01T13:58:33;7.00;99.90
25628;DHT22;40915;50.826;4.356;2023-03-01T14:01:31;7.00;99.90
25628;DHT22;40915;50.826;4.356;2023-03-01T14:04:02;6.90;99.90
25628;DHT22;40915;50.826;4.356;2023-03-01T14:06:31;6.90;99.90
25628;DHT22;40915;50.826;4.356;2023-03-01T14:12:12;7.00;99.90
25628;DHT22;40915;50.826;4.356;2023-03-01T14:20:42;6.90;99.90
25628;DHT22;40915;50.826;4.356;2023-03-01T14:23:16;6.80;99.90
25628;DHT22;40915;50.826;4.356;2023-03-01T14:25:54;6.90;99.90
25628;DHT22;40915;50.826;4.356;2023-03-01T14:28:25;6.90;99.90
25628;DHT22;40915;50.826;4.356;2023-03-01T14:30:54;7.00;99.90
25628;DHT22;40915;50.826;4.356;2023-03-01T14:33:34;7.00;99.90
25628;DHT22;40915;50.826;4.356;2023-03-01T14:36:10;7.00;99.90
25628;DHT22;40915;50.826;4.356;2023-03-01T14:38:43;7.00;99.90
25628;DHT22;40915;50.826;4.356;2023-03-01T14:44:02;7.00;99.90
25628;DHT22;40915;50.826;4.356;2023-03-01T14:46:33;7.00;99.90
25628;DHT22;40915;50.826;4.356;2023-03-01T14:52:07;7.50;99.90
25628;DHT22;40915;50.826;4.356;2023-03-01T14:54:42;7.60;99.90
25628;DHT22;40915;50.826;4.356;2023-03-01T14:57:15;7.70;99.90
25628;DHT22;40915;50.826;4.356;2023-03-01T14:59:42;7.80;99.90
25628;DHT22;40915;50.826;4.356;2023-03-01T15:02:13;7.80;99.90
25628;DHT22;40915;50.826;4.356;2023-03-01T15:04:43;7.70;99.90
25628;DHT22;40915;50.826;4.356;2023-03-01T15:07:12;7.60;99.90
25628;DHT22;40915;50.826;4.356;2023-03-01T15:09:39;7.50;99.90
25628;DHT22;40915;50.826;4.356;2023-03-01T15:12:45;7.30;99.90
25628;DHT22;40915;50.826;4.356;2023-03-01T15:15:26;7.30;99.90
25628;DHT22;40915;50.826;4.356;2023-03-01T15:17:58;7.30;99.90
25628;DHT22;40915;50.826;4.356;2023-03-01T15:20:26;7.30;99.90
25628;DHT22;40915;50.826;4.356;2023-03-01T15:22:53;7.30;99.90
25628;DHT22;40915;50.826;4.356;2023-03-01T15:25:23;7.20;99.90
25628;DHT22;40915;50.826;4.356;2023-03-01T15:27:51;7.20;99.90
25628;DHT22;40915;50.826;4.356;2023-03-01T15:30:26;7.20;99.90
25628;DHT22;40915;50.826;4.356;2023-03-01T15:36:03;7.10;99.90
25628;DHT22;40915;50.826;4.356;2023-03-01T15:38:54;7.10;99.90
25628;DHT22;40915;50.826;4.356;2023-03-01T15:43:53;7.00;99.90
25628;DHT22;40915;50.826;4.356;2023-03-01T15:46:27;7.00;99.90
25628;DHT22;40915;50.826;4.356;2023-03-01T15:48:57;7.00;99.90
25628;DHT22;40915;50.826;4.356;2023-03-01T15:51:36;6.90;99.90
25628;DHT22;40915;50.826;4.356;2023-03-01T15:54:20;7.10;99.90
25628;DHT22;40915;50.826;4.356;2023-03-01T15:56:46;7.10;99.90
25628;DHT22;40915;50.826;4.356;2023-03-01T15:59:12;7.00;99.90
25628;DHT22;40915;50.826;4.356;2023-03-01T16:01:41;6.90;99.90
25628;DHT22;40915;50.826;4.356;2023-03-01T16:04:10;7.00;99.90
25628;DHT22;40915;50.826;4.356;2023-03-01T16:06:39;7.00;99.90
25628;DHT22;40915;50.826;4.356;2023-03-01T16:09:05;7.00;99.90
25628;DHT22;40915;50.826;4.356;2023-03-01T16:11:31;6.90;99.90
25628;DHT22;40915;50.826;4.356;2023-03-01T16:13:57;6.90;99.90
25628;DHT22;40915;50.826;4.356;2023-03-01T16:16:23;6.80;99.90
25628;DHT22;40915;50.826;4.356;2023-03-01T16:18:49;6.80;99.90
25628;DHT22;40915;50.826;4.356;2023-03-01T16:21:22;6.80;99.90
25628;DHT22;40915;50.826;4.356;2023-03-01T16:23:48;6.80;99.90
25628;DHT22;40915;50.826;4.356;2023-03-01T16:26:15;6.70;99.90
25628;DHT22;40915;50.826;4.356;2023-03-01T16:28:42;6.70;99.90
25628;DHT22;40915;50.826;4.356;2023-03-01T16:31:08;6.70;99.90
25628;DHT22;40915;50.826;4.356;2023-03-01T16:33:34;6.70;99.90
25628;DHT22;40915;50.826;4.356;2023-03-01T16:36:10;6.70;99.90
25628;DHT22;40915;50.826;4.356;2023-03-01T16:38:37;6.60;99.90
25628;DHT22;40915;50.826;4.356;2023-03-01T16:41:04;6.60;99.90
25628;DHT22;40915;50.826;4.356;2023-03-01T16:43:30;6.50;99.90
25628;DHT22;40915;50.826;4.356;2023-03-01T16:45:56;6.50;99.90
25628;DHT22;40915;50.826;4.356;2023-03-01T16:48:24;6.50;99.90
25628;DHT22;40915;50.826;4.356;2023-03-01T16:51:00;6.50;99.90
25628;DHT22;40915;50.826;4.356;2023-03-01T16:53:27;6.40;99.90
25628;DHT22;40915;50.826;4.356;2023-03-01T16:55:57;6.40;99.90
25628;DHT22;40915;50.826;4.356;2023-03-01T16:58:22;6.30;99.90
25628;DHT22;40915;50.826;4.356;2023-03-01T17:00:51;6.30;99.90
25628;DHT22;40915;50.826;4.356;2023-03-01T17:03:16;6.20;99.90
25628;DHT22;40915;50.826;4.356;2023-03-01T17:05:42;6.20;99.90
25628;DHT22;40915;50.826;4.356;2023-03-01T17:08:08;6.20;99.90
25628;DHT22;40915;50.826;4.356;2023-03-01T17:13:12;6.10;99.90
25628;DHT22;40915;50.826;4.356;2023-03-01T17:15:40;6.10;99.90
25628;DHT22;40915;50.826;4.356;2023-03-01T17:18:06;6.10;99.90
25628;DHT22;40915;50.826;4.356;2023-03-01T17:20:32;6.10;99.90
25628;DHT22;40915;50.826;4.356;2023-03-01T17:22:57;6.00;99.90
25628;DHT22;40915;50.826;4.356;2023-03-01T17:25:23;6.00;99.90
25628;DHT22;40915;50.826;4.356;2023-03-01T17:27:49;6.00;99.90
25628;DHT22;40915;50.826;4.356;2023-03-01T17:30:15;5.90;99.90
25628;DHT22;40915;50.826;4.356;2023-03-01T17:32:41;5.80;99.90
25628;DHT22;40915;50.826;4.356;2023-03-01T21:29:56;3.80;99.90
25628;DHT22;40915;50.826;4.356;2023-03-01T21:32:21;3.80;99.90
25628;DHT22;40915;50.826;4.356;2023-03-01T21:34:47;3.70;99.90
25628;DHT22;40915;50.826;4.356;2023-03-01T21:37:13;3.60;99.90
25628;DHT22;40915;50.826;4.356;2023-03-01T21:39:38;3.60;99.90
25628;DHT22;40915;50.826;4.356;2023-03-01T21:42:04;3.60;99.90
25628;DHT22;40915;50.826;4.356;2023-03-01T21:44:31;3.60;99.90